»·PEaware :: N921VN 80T-S95

N921VN :: 80T-S95

FLIGHT INFORMATION

Flight Status: Arrived
Operator: Privately registered:
United States
More flights under this callsign
Pilot: Kevin M. (7)
Aircraft: BEECH AIRCRAFT BARON
(BE58)
More flights by this aircraft type
Origin: 80T Quincy Mun
United States
Destination: S95 Martin
United States
More flights between these airports :: More routes between these airports
Route:
File this flight plan on PilotEdge
Remarks: WA Alphabet Challenge!
Altitude:
(Current/Filed)
7,500ft
Speed:
(Current/Filed)
180kts
Departed: 04-Aug-20 09:06 AM
Arrived: 04-Aug-20 11:11 AM
Distance/Time
Traveled:
91nm/2:04
Distance/Time
To Go:
Arrived

Flight Plot

Page will automatically refresh every two minutes.

Flight plan parsing failed; only flown route is shown


Map Options




Map Legend


Flown Route
Filed Route
Departure Airport
Arrival Airport
Navaid (VOR, NDB)
Fix

Horizontal Profiles

Position Reports

Time Latitude Longitude Heading Altitude Ground
Speed
04-Aug-20 09:03 47.211337 -119.833815 276 1262ft 0kts
04-Aug-20 09:04 47.210307 -119.833053 287 1262ft 10kts
04-Aug-20 09:05 47.207833 -119.866758 195 2355ft 123kts
04-Aug-20 09:06 47.177310 -119.837616 145 3728ft 143kts
04-Aug-20 09:07 47.140772 -119.803236 139 4467ft 169kts
04-Aug-20 09:08 47.109194 -119.747048 110 4444ft 193kts
04-Aug-20 09:09 47.100471 -119.668512 88 4024ft 203kts
04-Aug-20 09:10 47.102479 -119.591095 91 4307ft 189kts
04-Aug-20 09:11 47.101188 -119.515503 89 4596ft 184kts
04-Aug-20 09:12 47.100613 -119.439519 89 4701ft 185kts
04-Aug-20 09:13 47.078701 -119.376577 141 4805ft 185kts
04-Aug-20 09:14 47.033332 -119.340998 152 4906ft 185kts
04-Aug-20 09:15 47.002772 -119.290926 72 5004ft 185kts
04-Aug-20 09:16 47.002331 -119.215433 106 5112ft 189kts
04-Aug-20 09:17 46.986279 -119.142163 107 5217ft 189kts
04-Aug-20 09:18 46.945974 -119.096201 154 5323ft 189kts
04-Aug-20 09:19 46.898773 -119.062771 154 5426ft 188kts
04-Aug-20 09:20 46.851619 -119.029429 154 5523ft 188kts
04-Aug-20 09:21 46.804527 -118.995984 154 5622ft 187kts
04-Aug-20 09:22 46.758758 -118.960124 148 5724ft 186kts
04-Aug-20 09:23 46.739391 -118.943650 160 5758ft 186kts
04-Aug-20 09:24 46.739391 -118.943650 160 5758ft 186kts
04-Aug-20 09:25 46.739391 -118.943650 160 5758ft 186kts
04-Aug-20 09:26 46.739391 -118.943650 160 5758ft 186kts
04-Aug-20 09:27 46.739391 -118.943650 160 5758ft 186kts
04-Aug-20 09:28 46.739391 -118.943650 160 5758ft 186kts
04-Aug-20 09:29 46.739391 -118.943650 160 5758ft 186kts
04-Aug-20 09:30 46.739391 -118.943650 160 5758ft 186kts
04-Aug-20 09:32 46.739391 -118.943650 160 5758ft 186kts
04-Aug-20 09:33 46.739391 -118.943650 160 5758ft 186kts
04-Aug-20 09:34 46.739391 -118.943650 160 5758ft 186kts
04-Aug-20 09:35 46.739391 -118.943650 160 5758ft 186kts
04-Aug-20 09:36 46.739391 -118.943650 160 5758ft 186kts
04-Aug-20 09:37 46.739391 -118.943650 160 5758ft 186kts
04-Aug-20 09:38 46.739391 -118.943650 160 5758ft 186kts
04-Aug-20 09:39 46.739391 -118.943650 160 5758ft 186kts
04-Aug-20 09:40 46.739391 -118.943650 160 5758ft 186kts
04-Aug-20 09:41 46.739391 -118.943650 160 5758ft 186kts
04-Aug-20 09:42 46.739391 -118.943650 160 5758ft 186kts
04-Aug-20 09:43 46.739391 -118.943650 160 5758ft 186kts
04-Aug-20 09:44 46.739391 -118.943650 160 5758ft 186kts
04-Aug-20 09:45 46.739391 -118.943650 160 5758ft 186kts
04-Aug-20 09:46 46.739391 -118.943650 160 5758ft 186kts
04-Aug-20 09:46 46.739391 -118.943650 160 5758ft 186kts
04-Aug-20 09:48 46.739391 -118.943650 160 5758ft 186kts
04-Aug-20 09:48 46.739391 -118.943650 160 5758ft 186kts
04-Aug-20 09:49 46.739391 -118.943650 160 5758ft 186kts
04-Aug-20 09:51 46.739391 -118.943650 160 5758ft 186kts
04-Aug-20 09:51 46.739391 -118.943650 160 5758ft 186kts
04-Aug-20 09:52 46.739391 -118.943650 160 5758ft 186kts
04-Aug-20 09:53 46.739391 -118.943650 160 5758ft 186kts
04-Aug-20 09:54 46.739391 -118.943650 160 5758ft 186kts
04-Aug-20 09:55 46.739391 -118.943650 160 5758ft 186kts
04-Aug-20 09:56 46.739391 -118.943650 160 5758ft 186kts
04-Aug-20 09:57 46.739391 -118.943650 160 5758ft 186kts
04-Aug-20 09:58 46.739391 -118.943650 160 5758ft 186kts
04-Aug-20 09:59 46.739391 -118.943650 160 5758ft 186kts
04-Aug-20 10:00 46.739391 -118.943650 160 5758ft 186kts
04-Aug-20 10:01 46.739391 -118.943650 160 5758ft 186kts
04-Aug-20 10:02 46.739391 -118.943650 160 5758ft 186kts
04-Aug-20 10:03 46.739391 -118.943650 160 5758ft 186kts
04-Aug-20 10:04 46.739391 -118.943650 160 5758ft 186kts
04-Aug-20 10:05 46.739391 -118.943650 160 5758ft 186kts
04-Aug-20 10:06 46.739391 -118.943650 160 5758ft 186kts
04-Aug-20 10:07 46.739391 -118.943650 160 5758ft 186kts
04-Aug-20 10:08 46.739391 -118.943650 160 5758ft 186kts
04-Aug-20 10:09 46.739391 -118.943650 160 5758ft 186kts
04-Aug-20 10:10 46.739391 -118.943650 160 5758ft 186kts
04-Aug-20 10:11 46.739391 -118.943650 160 5758ft 186kts
04-Aug-20 10:12 46.739391 -118.943650 160 5758ft 186kts
04-Aug-20 10:13 46.739391 -118.943650 160 5758ft 186kts
04-Aug-20 10:14 46.739391 -118.943650 160 5758ft 186kts
04-Aug-20 10:15 46.739391 -118.943650 160 5758ft 186kts
04-Aug-20 10:16 46.739391 -118.943650 160 5758ft 186kts
04-Aug-20 10:17 46.739391 -118.943650 160 5758ft 186kts
04-Aug-20 10:18 46.739391 -118.943650 160 5758ft 186kts
04-Aug-20 10:19 46.739391 -118.943650 160 5758ft 186kts
04-Aug-20 10:20 46.739391 -118.943650 160 5758ft 186kts
04-Aug-20 10:21 46.739391 -118.943650 160 5758ft 186kts
04-Aug-20 10:22 46.739391 -118.943650 160 5758ft 186kts
04-Aug-20 10:23 46.739391 -118.943650 160 5758ft 186kts
04-Aug-20 10:24 46.739391 -118.943650 160 5758ft 186kts
04-Aug-20 10:25 46.739391 -118.943650 160 5758ft 186kts
04-Aug-20 10:26 46.739391 -118.943650 160 5758ft 186kts
04-Aug-20 10:27 46.739391 -118.943650 160 5758ft 186kts
04-Aug-20 10:28 46.739391 -118.943650 160 5758ft 186kts
04-Aug-20 10:29 46.739391 -118.943650 160 5758ft 186kts
04-Aug-20 10:30 46.739391 -118.943650 160 5758ft 186kts
04-Aug-20 10:31 46.739391 -118.943650 160 5758ft 186kts
04-Aug-20 10:32 46.739391 -118.943650 160 5758ft 186kts
04-Aug-20 10:33 46.739391 -118.943650 160 5758ft 186kts
04-Aug-20 10:34 46.739391 -118.943650 160 5758ft 186kts
04-Aug-20 10:35 46.739391 -118.943650 160 5758ft 186kts
04-Aug-20 10:36 46.739391 -118.943650 160 5758ft 186kts
04-Aug-20 10:37 46.739391 -118.943650 160 5758ft 186kts
04-Aug-20 10:38 46.739391 -118.943650 160 5758ft 186kts
04-Aug-20 10:39 46.739391 -118.943650 160 5758ft 186kts
04-Aug-20 10:40 46.739391 -118.943650 160 5758ft 186kts
04-Aug-20 10:41 46.739391 -118.943650 160 5758ft 186kts
04-Aug-20 10:42 46.739391 -118.943650 160 5758ft 186kts
04-Aug-20 10:43 46.739391 -118.943650 160 5758ft 186kts
04-Aug-20 10:44 46.739391 -118.943650 160 5758ft 186kts
04-Aug-20 10:45 46.739391 -118.943650 160 5758ft 186kts
04-Aug-20 10:46 46.739391 -118.943650 160 5758ft 186kts
04-Aug-20 10:47 46.739391 -118.943650 160 5758ft 186kts
04-Aug-20 10:48 46.739391 -118.943650 160 5758ft 186kts
04-Aug-20 10:49 46.739391 -118.943650 160 5758ft 186kts
04-Aug-20 10:50 46.706788 -118.939110 177 5545ft 195kts
04-Aug-20 10:51 46.653346 -118.954250 194 5240ft 194kts
04-Aug-20 10:52 46.601618 -118.968987 191 5333ft 187kts
04-Aug-20 10:53 46.550545 -118.983076 191 5433ft 186kts
04-Aug-20 10:54 46.500985 -119.003519 192 5521ft 186kts
04-Aug-20 10:55 46.448647 -119.009234 178 5473ft 190kts
04-Aug-20 10:56 46.396135 -119.004148 174 5510ft 189kts
04-Aug-20 10:57 46.343772 -118.995889 174 5510ft 190kts
04-Aug-20 10:58 46.291396 -118.985410 171 5510ft 190kts
04-Aug-20 10:59 46.239271 -118.973117 171 5510ft 190kts
04-Aug-20 11:00 46.187153 -118.960793 171 5509ft 189kts
04-Aug-20 11:01 46.137573 -118.937549 144 5507ft 190kts
04-Aug-20 11:02 46.094283 -118.889332 137 4994ft 201kts
04-Aug-20 11:03 46.081825 -118.812117 99 4394ft 201kts
04-Aug-20 11:04 46.070025 -118.732773 104 3795ft 203kts
04-Aug-20 11:05 46.064244 -118.652226 87 3452ft 198kts
04-Aug-20 11:06 46.065556 -118.573900 96 3462ft 194kts
04-Aug-20 11:07 46.058402 -118.497220 98 3465ft 191kts
04-Aug-20 11:08 46.054548 -118.425972 77 2055ft 172kts
04-Aug-20 11:09 46.052594 -118.399040 256 1100ft 107kts
04-Aug-20 11:10 46.045789 -118.418586 65 749ft 10kts
04-Aug-20 11:11 46.046744 -118.414834 343 749ft 0kts
04-Aug-20 11:12 46.046744 -118.414834 343 749ft 0kts

Navigation Log

Ident Type
Flight plan parsing failed, navigation log unavailable